Pagina principale
METAR-TAF:

METAR-TAF

Aeroporti :

Biserta, Tunisia

latitudine: 37-15N, longitudine: 009-48E, altezza: 5 m

Osservazione

Il bollettino è stato emesso 1 ora e 12 minuti fa, alle 07:00 UTC
Temperature 22°C
Umidità 60%
Pressione 1018 hPa
Visibilità 10 km o più
Poco nuvoloso ad un'altezza di 2000 ft

METAR: DTTB 270700Z 090L KT 9999 FEW020 22/14 Q1018

Ora: 09:12 (08:12 UTC)

Previsione

Il bollettino è stato emesso 2 ore e 12 minuti fa, alle 06:00 UTC
Previsione valida dal 27 alle 07 UTC al 27 alle 16 UTC
Vento 8 kt da est
Visibilità 10 km o più
nessuna nube inferiore a 1500 m e nessun cumulonembo

TAF: DTTB 270600Z 2707/2716 09008KT CAVOK

Osservazioni e previsioni meteorologiche di più di 4000 aeroporti (messaggi METAR e TAF).

Le stazioni disponibili sono rappresentate dai dischi gialli e rossi sulla carta.

Puntare il mouse per vedere il nome della stazione.

Clicca sopra per visualizzare le osservazioni e previsioni meteorologiche.

Per cambiare la mappa : fare clic sui pulsanti verdi con una croce nera per ingrandire, il pulsante verde con un trattino per diminuire, o sulla freccia verde per le mappe adiacenti.


METAR-TAF: